Observation data for Turkey on 12/08/2019      Previous  Date       Current Mesonet Observations  Soil Data  Daily Summary Page  Observations in Plain Language
KTUR 080600Z 18006KT 11/03 A2995 RMK A01 T01130029  RH  057%=      5-min Rain = 0
KTUR 080605Z 18008KT 12/03 A2994 RMK A01 T01150029  RH  056%=      5-min Rain = 0
KTUR 080610Z 17008KT 12/03 A2994 RMK A01 T01160030  RH  056%=      5-min Rain = 0
KTUR 080615Z 18010G16KT 12/03 A2994 RMK A01 T01170030  RH  056%=      5-min Rain = 0
KTUR 080620Z 19010G15KT 12/03 A2994 RMK A01 T01180030  RH  055%=      5-min Rain = 0
KTUR 080625Z 19011KT 12/03 A2994 RMK A01 T01180030  RH  055%=      5-min Rain = 0
KTUR 080630Z 20013G19KT 12/03 A2993 RMK A01 T01190030  RH  055%=      5-min Rain = 0
KTUR 080635Z 20014KT 12/03 A2993 RMK A01 T01180029  RH  055%=      5-min Rain = 0
KTUR 080640Z 20015KT 12/03 A2992 RMK A01 T01170029  RH  056%=      5-min Rain = 0
KTUR 080645Z 20016G21KT 12/03 A2991 RMK A01 T01170029  RH  055%=      5-min Rain = 0
KTUR 080650Z 19015KT 12/03 A2991 RMK A01 T01170029  RH  055%=      5-min Rain = 0
KTUR 080655Z 20014G19KT 12/03 A2991 RMK A01 T01150029  RH  056%=      5-min Rain = 0
KTUR 080700Z 20015KT 11/03 A2991 RMK A01 T01140029  RH  056%=      5-min Rain = 0
KTUR 080705Z 21013KT 11/03 A2991 RMK A01 T01140028  RH  056%=      5-min Rain = 0
KTUR 080710Z 21013G18KT 11/03 A2991 RMK A01 T01140028  RH  056%=      5-min Rain = 0
KTUR 080715Z 21012G17KT 11/03 A299 RMK A01 T01120028  RH  057%=      5-min Rain = 0
KTUR 080720Z 20010G17KT 11/03 A299 RMK A01 T01130028  RH  057%=      5-min Rain = 0
KTUR 080725Z 21012KT 11/03 A2989 RMK A01 T01120029  RH  057%=      5-min Rain = 0
KTUR 080730Z 21013G18KT 11/03 A2989 RMK A01 T01120028  RH  057%=      5-min Rain = 0
KTUR 080735Z 21012G18KT 11/03 A2989 RMK A01 T01120028  RH  057%=      5-min Rain = 0
KTUR 080740Z 22011KT 11/03 A2989 RMK A01 T01110028  RH  057%=      5-min Rain = 0
KTUR 080745Z 22013G19KT 11/03 A2989 RMK A01 T01110028  RH  057%=      5-min Rain = 0
KTUR 080750Z 23012KT 11/03 A299 RMK A01 T01110028  RH  057%=      5-min Rain = 0
KTUR 080755Z 24011G18KT 11/03 A299 RMK A01 T01130027  RH  056%=      5-min Rain = 0
KTUR 080800Z 29004G9KT 11/03 A299 RMK A01 T01130027  RH  056%=      5-min Rain = 0
KTUR 080805Z 30003KT 11/03 A299 RMK A01 T01130026  RH  056%=      5-min Rain = 0
KTUR 080810Z 28002KT 11/03 A299 RMK A01 T01130026  RH  055%=      5-min Rain = 0
KTUR 080815Z 24006KT 11/03 A299 RMK A01 T01120026  RH  056%=      5-min Rain = 0
KTUR 080820Z 24007G12KT 11/03 A299 RMK A01 T01130026  RH  056%=      5-min Rain = 0
KTUR 080825Z 24009G14KT 11/03 A299 RMK A01 T01140026  RH  055%=      5-min Rain = 0
KTUR 080830Z 24009KT 11/03 A299 RMK A01 T01110026  RH  056%=      5-min Rain = 0
KTUR 080835Z 25010KT 11/03 A299 RMK A01 T01110026  RH  056%=      5-min Rain = 0
KTUR 080840Z 24011G16KT 11/03 A299 RMK A01 T01100026  RH  057%=      5-min Rain = 0
KTUR 080845Z 24013KT 11/03 A299 RMK A01 T01070026  RH  058%=      5-min Rain = 0
KTUR 080850Z 23015KT 11/03 A2989 RMK A01 T01070026  RH  058%=      5-min Rain = 0
KTUR 080855Z 22016KT 11/03 A2989 RMK A01 T01080026  RH  058%=      5-min Rain = 0
KTUR 080900Z 22016G21KT 11/03 A2989 RMK A01 T01080026  RH  057%=      5-min Rain = 0
KTUR 080905Z 23013KT 11/03 A2989 RMK A01 T01070026  RH  058%=      5-min Rain = 0
KTUR 080910Z 24011KT 10/03 A2989 RMK A01 T01020025  RH  060%=      5-min Rain = 0
KTUR 080915Z 24009KT 10/03 A2989 RMK A01 T00990025  RH  061%=      5-min Rain = 0
KTUR 080920Z 25007KT 10/03 A299 RMK A01 T00980026  RH  061%=      5-min Rain = 0
KTUR 080925Z 29006KT 10/03 A2989 RMK A01 T00990025  RH  061%=      5-min Rain = 0
KTUR 080930Z 31006KT 10/03 A2989 RMK A01 T00990025  RH  061%=      5-min Rain = 0
KTUR 080935Z 30007KT 10/03 A2989 RMK A01 T01010026  RH  060%=      5-min Rain = 0
KTUR 080940Z 27006KT 11/03 A2989 RMK A01 T01050027  RH  059%=      5-min Rain = 0
KTUR 080945Z 25005KT 11/03 A2989 RMK A01 T01060027  RH  059%=      5-min Rain = 0
KTUR 080950Z 24004KT 11/03 A2988 RMK A01 T01060027  RH  059%=      5-min Rain = 0
KTUR 080955Z 28004KT 11/03 A2988 RMK A01 T01100028  RH  058%=      5-min Rain = 0
KTUR 081000Z 28004KT 11/03 A2988 RMK A01 T01080029  RH  059%=      5-min Rain = 0
KTUR 081005Z 29004KT 11/03 A2988 RMK A01 T01080030  RH  059%=      5-min Rain = 0
KTUR 081010Z 25003KT 11/03 A2987 RMK A01 T01060029  RH  060%=      5-min Rain = 0
KTUR 081015Z 20003KT 11/03 A2986 RMK A01 T01060029  RH  060%=      5-min Rain = 0
KTUR 081020Z 23003KT 11/03 A2986 RMK A01 T01070030  RH  060%=      5-min Rain = 0
KTUR 081025Z 24008KT 11/03 A2987 RMK A01 T01080033  RH  061%=      5-min Rain = 0
KTUR 081030Z 25010KT 11/03 A2987 RMK A01 T01110033  RH  059%=      5-min Rain = 0
KTUR 081035Z 25010KT 11/03 A2986 RMK A01 T01110033  RH  059%=      5-min Rain = 0
KTUR 081040Z 24011KT 11/03 A2986 RMK A01 T01110033  RH  059%=      5-min Rain = 0
KTUR 081045Z 23010KT 11/03 A2985 RMK A01 T01110033  RH  060%=      5-min Rain = 0
KTUR 081050Z 23009KT 11/03 A2985 RMK A01 T01100034  RH  060%=      5-min Rain = 0
KTUR 081055Z 23009KT 11/03 A2985 RMK A01 T01110034  RH  060%=      5-min Rain = 0
KTUR 081100Z 23010KT 12/04 A2985 RMK A01 T01150035  RH  058%=      5-min Rain = 0
KTUR 081105Z 23011KT 12/04 A2985 RMK A01 T01200035  RH  057%=      5-min Rain = 0
KTUR 081110Z 24011KT 12/04 A2985 RMK A01 T01210035  RH  056%=      5-min Rain = 0
KTUR 081115Z 23011KT 12/04 A2984 RMK A01 T01220036  RH  056%=      5-min Rain = 0
KTUR 081120Z 23011KT 12/04 A2984 RMK A01 T01210036  RH  057%=      5-min Rain = 0
KTUR 081125Z 24010KT 12/04 A2983 RMK A01 T01220036  RH  056%=      5-min Rain = 0
KTUR 081130Z 25009KT 12/04 A2984 RMK A01 T01220036  RH  056%=      5-min Rain = 0
KTUR 081135Z 25010KT 12/04 A2984 RMK A01 T01240035  RH  056%=      5-min Rain = 0
KTUR 081140Z 24010KT 12/04 A2984 RMK A01 T01230036  RH  056%=      5-min Rain = 0
KTUR 081145Z 24013G18KT 13/04 A2984 RMK A01 T01260035  RH  054%=      5-min Rain = 0
KTUR 081150Z 25015KT 14/03 A2984 RMK A01 T01360034  RH  051%=      5-min Rain = 0
KTUR 081155Z 25013G18KT 14/03 A2984 RMK A01 T01380034  RH  050%=      5-min Rain = 0
KTUR 081200Z 25013KT 14/03 A2985 RMK A01 T01380034  RH  050%=      5-min Rain = 0
KTUR 081205Z 24015KT 14/03 A2985 RMK A01 T01370034  RH  050%=      5-min Rain = 0
KTUR 081210Z 24016KT 14/03 A2985 RMK A01 T01360034  RH  051%=      5-min Rain = 0
KTUR 081215Z 24016KT 14/03 A2984 RMK A01 T01360034  RH  051%=      5-min Rain = 0
KTUR 081220Z 24016KT 14/03 A2984 RMK A01 T01360034  RH  051%=      5-min Rain = 0
KTUR 081225Z 25015G21KT 14/03 A2985 RMK A01 T01370034  RH  051%=      5-min Rain = 0
KTUR 081230Z 24017KT 14/04 A2984 RMK A01 T01360035  RH  051%=      5-min Rain = 0
KTUR 081235Z 24015KT 13/04 A2985 RMK A01 T01340035  RH  052%=      5-min Rain = 0
KTUR 081240Z 25014KT 13/04 A2985 RMK A01 T01330035  RH  052%=      5-min Rain = 0
KTUR 081245Z 24013KT 13/04 A2984 RMK A01 T01320036  RH  053%=      5-min Rain = 0
KTUR 081250Z 24013KT 13/04 A2984 RMK A01 T01300036  RH  053%=      5-min Rain = 0
KTUR 081255Z 24012KT 13/04 A2984 RMK A01 T01300036  RH  054%=      5-min Rain = 0
KTUR 081300Z 24013KT 13/04 A2984 RMK A01 T01320036  RH  053%=      5-min Rain = 0
KTUR 081305Z 24015KT 14/04 A2984 RMK A01 T01350036  RH  052%=      5-min Rain = 0
KTUR 081310Z 24014KT 14/04 A2984 RMK A01 T01360036  RH  051%=      5-min Rain = 0
KTUR 081315Z 24014KT 14/04 A2984 RMK A01 T01360037  RH  052%=      5-min Rain = 0
KTUR 081320Z 24016KT 14/04 A2984 RMK A01 T01360037  RH  052%=      5-min Rain = 0
KTUR 081325Z 24014KT 14/04 A2984 RMK A01 T01370038  RH  052%=      5-min Rain = 0
KTUR 081330Z 24015KT 14/04 A2984 RMK A01 T01370038  RH  052%=      5-min Rain = 0
KTUR 081335Z 24017G22KT 14/04 A2984 RMK A01 T01410037  RH  050%=      5-min Rain = 0
KTUR 081340Z 23016G22KT 14/04 A2984 RMK A01 T01440037  RH  049%=      5-min Rain = 0
KTUR 081345Z 24015KT 14/04 A2984 RMK A01 T01440036  RH  049%=      5-min Rain = 0
KTUR 081350Z 24015KT 15/04 A2984 RMK A01 T01450036  RH  049%=      5-min Rain = 0
KTUR 081355Z 24014G19KT 15/04 A2984 RMK A01 T01470035  RH  048%=      5-min Rain = 0
KTUR 081400Z 24015KT 15/03 A2984 RMK A01 T01520033  RH  046%=      5-min Rain = 0
KTUR 081405Z 24015G20KT 16/03 A2984 RMK A01 T01550032  RH  044%=      5-min Rain = 0
KTUR 081410Z 25013KT 16/03 A2983 RMK A01 T01570032  RH  044%=      5-min Rain = 0
KTUR 081415Z 24013KT 16/03 A2983 RMK A01 T01560032  RH  044%=      5-min Rain = 0
KTUR 081420Z 24013KT 16/03 A2983 RMK A01 T01580031  RH  043%=      5-min Rain = 0
KTUR 081425Z 24011KT 16/03 A2983 RMK A01 T01570032  RH  044%=      5-min Rain = 0
KTUR 081430Z 23011KT 16/03 A2983 RMK A01 T01550033  RH  044%=      5-min Rain = 0
KTUR 081435Z 23012KT 15/03 A2983 RMK A01 T01530034  RH  045%=      5-min Rain = 0
KTUR 081440Z 23013KT 15/03 A2983 RMK A01 T01510034  RH  046%=      5-min Rain = 0
KTUR 081445Z 23013KT 15/04 A2983 RMK A01 T01500035  RH  047%=      5-min Rain = 0
KTUR 081450Z 23011KT 15/04 A2983 RMK A01 T01500036  RH  047%=      5-min Rain = 0
KTUR 081455Z 23013KT 15/04 A2983 RMK A01 T01500036  RH  047%=      5-min Rain = 0
KTUR 081500Z 24011KT 15/04 A2983 RMK A01 T01510036  RH  047%=      5-min Rain = 0
KTUR 081505Z 24012KT 15/04 A2983 RMK A01 T01530037  RH  046%=      5-min Rain = 0
KTUR 081510Z 24013KT 15/04 A2983 RMK A01 T01540037  RH  046%=      5-min Rain = 0
KTUR 081515Z 24014KT 16/04 A2982 RMK A01 T01570037  RH  045%=      5-min Rain = 0
KTUR 081520Z 24014KT 16/04 A2982 RMK A01 T01590037  RH  045%=      5-min Rain = 0
KTUR 081525Z 24014KT 16/04 A2982 RMK A01 T01610037  RH  044%=      5-min Rain = 0
KTUR 081530Z 24015KT 16/04 A2983 RMK A01 T01630037  RH  044%=      5-min Rain = 0
KTUR 081535Z 24014KT 17/04 A2983 RMK A01 T01650038  RH  043%=      5-min Rain = 0
KTUR 081540Z 24015G20KT 17/04 A2983 RMK A01 T01670039  RH  043%=      5-min Rain = 0
KTUR 081545Z 24017G22KT 17/04 A2983 RMK A01 T01680038  RH  043%=      5-min Rain = 0
KTUR 081550Z 25016G22KT 17/04 A2982 RMK A01 T01670038  RH  043%=      5-min Rain = 0
KTUR 081555Z 25016G23KT 17/04 A2982 RMK A01 T01650038  RH  043%=      5-min Rain = 0
KTUR 081600Z 25017G23KT 16/04 A2982 RMK A01 T01640038  RH  043%=      5-min Rain = 0
KTUR 081605Z 25016KT 17/04 A2982 RMK A01 T01650038  RH  043%=      5-min Rain = 0
KTUR 081610Z 24016KT 17/04 A2983 RMK A01 T01650038  RH  044%=      5-min Rain = 0
KTUR 081615Z 24014KT 16/04 A2982 RMK A01 T01640040  RH  044%=      5-min Rain = 0
KTUR 081620Z 24015KT 16/04 A2982 RMK A01 T01640041  RH  044%=      5-min Rain = 0
KTUR 081625Z 24014G19KT 17/04 A2982 RMK A01 T01660042  RH  044%=      5-min Rain = 0
KTUR 081630Z 25012KT 17/04 A2982 RMK A01 T01670043  RH  044%=      5-min Rain = 0
KTUR 081635Z 25014KT 17/04 A2982 RMK A01 T01670043  RH  044%=      5-min Rain = 0
KTUR 081640Z 25013KT 17/04 A2981 RMK A01 T01680043  RH  044%=      5-min Rain = 0
KTUR 081645Z 25013KT 17/05 A2982 RMK A01 T01720045  RH  043%=      5-min Rain = 0
KTUR 081650Z 25013G20KT 18/05 A2982 RMK A01 T01800046  RH  042%=      5-min Rain = 0
KTUR 081655Z 25014KT 18/05 A2981 RMK A01 T01820046  RH  041%=      5-min Rain = 0
KTUR 081700Z 25015KT 18/05 A2981 RMK A01 T01820046  RH  041%=      5-min Rain = 0
KTUR 081705Z 25014KT 19/05 A2981 RMK A01 T01850047  RH  041%=      5-min Rain = 0
KTUR 081710Z 24014G20KT 19/05 A2981 RMK A01 T01890048  RH  040%=      5-min Rain = 0
KTUR 081715Z 24015KT 19/05 A298 RMK A01 T01900048  RH  040%=      5-min Rain = 0
KTUR 081720Z 24017G22KT 19/05 A298 RMK A01 T01920048  RH  039%=      5-min Rain = 0
KTUR 081725Z 24015KT 19/05 A298 RMK A01 T01940048  RH  039%=      5-min Rain = 0
KTUR 081730Z 25017G23KT 20/05 A2981 RMK A01 T01960047  RH  038%=      5-min Rain = 0
KTUR 081735Z 25015KT 20/05 A2981 RMK A01 T01990047  RH  037%=      5-min Rain = 0
KTUR 081740Z 24015G22KT 20/05 A298 RMK A01 T02010048  RH  037%=      5-min Rain = 0
KTUR 081745Z 24017G24KT 20/05 A298 RMK A01 T02020047  RH  036%=      5-min Rain = 0
KTUR 081750Z 24017G23KT 20/05 A2979 RMK A01 T02020046  RH  036%=      5-min Rain = 0
KTUR 081755Z 24018G25KT 21/05 A2979 RMK A01 T02060047  RH  036%=      5-min Rain = 0
KTUR 081800Z 24019G25KT 21/05 A2978 RMK A01 T02080047  RH  035%=      5-min Rain = 0
KTUR 081805Z 23018G23KT 21/05 A2978 RMK A01 T02070046  RH  035%=      5-min Rain = 0
KTUR 081810Z 23022G28KT 21/05 A2978 RMK A01 T02060046  RH  035%=      5-min Rain = 0
KTUR 081815Z 23023G28KT 20/05 A2978 RMK A01 T02040046  RH  036%=      5-min Rain = 0
KTUR 081820Z 23023G29KT 21/05 A2977 RMK A01 T02080046  RH  035%=      5-min Rain = 0
KTUR 081825Z 23023G28KT 21/05 A2976 RMK A01 T02080046  RH  035%=      5-min Rain = 0
KTUR 081830Z 24021G30KT 21/05 A2976 RMK A01 T02100047  RH  035%=      5-min Rain = 0
KTUR 081835Z 23022G28KT 21/04 A2975 RMK A01 T02070044  RH  035%=      5-min Rain = 0
KTUR 081840Z 24021G28KT 21/05 A2975 RMK A01 T02110045  RH  034%=      5-min Rain = 0
KTUR 081845Z 23020G29KT 22/05 A2975 RMK A01 T02160045  RH  033%=      5-min Rain = 0
KTUR 081850Z 23020G26KT 22/05 A2975 RMK A01 T02180045  RH  033%=      5-min Rain = 0
KTUR 081855Z 23024G32KT 22/04 A2974 RMK A01 T02190043  RH  032%=      5-min Rain = 0
KTUR 081900Z 23024G30KT 22/04 A2974 RMK A01 T02200042  RH  032%=      5-min Rain = 0
KTUR 081905Z 23025KT 22/04 A2973 RMK A01 T02210041  RH  031%=      5-min Rain = 0
KTUR 081910Z 22025G30KT 22/04 A2973 RMK A01 T02240042  RH  031%=      5-min Rain = 0
KTUR 081915Z 23022KT 22/04 A2973 RMK A01 T02240042  RH  031%=      5-min Rain = 0
KTUR 081920Z 23022G27KT 22/04 A2973 RMK A01 T02240041  RH  031%=      5-min Rain = 0
KTUR 081925Z 23026G31KT 22/04 A2973 RMK A01 T02240037  RH  030%=      5-min Rain = 0
KTUR 081930Z 24024G31KT 22/04 A2973 RMK A01 T02240035  RH  029%=      5-min Rain = 0
KTUR 081935Z 23022G30KT 23/04 A2973 RMK A01 T02270037  RH  029%=      5-min Rain = 0
KTUR 081940Z 23026G34KT 23/03 A2972 RMK A01 T02250034  RH  029%=      5-min Rain = 0
KTUR 081945Z 23024G33KT 23/04 A2972 RMK A01 T02260035  RH  029%=      5-min Rain = 0
KTUR 081950Z 24026G36KT 23/04 A2972 RMK A01 T02270035  RH  029%=      5-min Rain = 0
KTUR 081955Z 24025G31KT 23/04 A2972 RMK A01 T02280036  RH  029%=      5-min Rain = 0
KTUR 082000Z 23026G34KT 23/04 A2972 RMK A01 T02280037  RH  029%=      5-min Rain = 0
KTUR 082005Z 23024G30KT 23/04 A2971 RMK A01 T02290037  RH  029%=      5-min Rain = 0
KTUR 082010Z 23025G32KT 23/04 A2971 RMK A01 T02300036  RH  029%=      5-min Rain = 0
KTUR 082015Z 23025G36KT 23/04 A2971 RMK A01 T02290035  RH  028%=      5-min Rain = 0
KTUR 082020Z 23028G38KT 23/03 A2971 RMK A01 T02280032  RH  028%=      5-min Rain = 0
KTUR 082025Z 23024G34KT 23/03 A2971 RMK A01 T02270032  RH  028%=      5-min Rain = 0
KTUR 082030Z 23021G30KT 23/04 A297 RMK A01 T02300035  RH  028%=      5-min Rain = 0
KTUR 082035Z 23025G33KT 23/04 A297 RMK A01 T02290035  RH  028%=      5-min Rain = 0
KTUR 082040Z 23028G35KT 23/04 A2969 RMK A01 T02280035  RH  029%=      5-min Rain = 0
KTUR 082045Z 23028G34KT 23/04 A297 RMK A01 T02310036  RH  028%=      5-min Rain = 0
KTUR 082050Z 23028G35KT 23/04 A297 RMK A01 T02330036  RH  028%=      5-min Rain = 0
KTUR 082055Z 23027G34KT 24/04 A297 RMK A01 T02350037  RH  028%=      5-min Rain = 0
KTUR 082100Z 23027G34KT 24/04 A297 RMK A01 T02360036  RH  027%=      5-min Rain = 0
KTUR 082105Z 23025G33KT 24/04 A297 RMK A01 T02350036  RH  028%=      5-min Rain = 0
KTUR 082110Z 24025G31KT 23/04 A297 RMK A01 T02320036  RH  028%=      5-min Rain = 0
KTUR 082115Z 23028G34KT 23/04 A297 RMK A01 T02320037  RH  028%=      5-min Rain = 0
KTUR 082120Z 24024G32KT 23/04 A297 RMK A01 T02310039  RH  029%=      5-min Rain = 0
KTUR 082125Z 24024G29KT 23/04 A297 RMK A01 T02300041  RH  029%=      5-min Rain = 0
KTUR 082130Z 24019G27KT 23/04 A2971 RMK A01 T02310042  RH  030%=      5-min Rain = 0
KTUR 082135Z 23024G33KT 23/04 A297 RMK A01 T02300043  RH  030%=      5-min Rain = 0
KTUR 082140Z 24023G29KT 23/04 A297 RMK A01 T02290044  RH  030%=      5-min Rain = 0
KTUR 082145Z 23022G29KT 23/04 A297 RMK A01 T02270044  RH  031%=      5-min Rain = 0
KTUR 082150Z 24018G24KT 23/04 A297 RMK A01 T02260044  RH  031%=      5-min Rain = 0
KTUR 082155Z 23021G30KT 23/04 A297 RMK A01 T02260044  RH  031%=      5-min Rain = 0
KTUR 082200Z 23027G35KT 23/04 A2969 RMK A01 T02250042  RH  031%=      5-min Rain = 0
KTUR 082205Z 23027G34KT 22/04 A2969 RMK A01 T02240041  RH  031%=      5-min Rain = 0
KTUR 082210Z 24025G32KT 22/04 A2969 RMK A01 T02230042  RH  031%=      5-min Rain = 0
KTUR 082215Z 23024G30KT 22/04 A2969 RMK A01 T02220043  RH  032%=      5-min Rain = 0
KTUR 082220Z 24019G25KT 22/04 A297 RMK A01 T02210044  RH  032%=      5-min Rain = 0
KTUR 082225Z 24019G28KT 22/05 A297 RMK A01 T02200045  RH  032%=      5-min Rain = 0
KTUR 082230Z 24020G26KT 22/05 A297 RMK A01 T02200045  RH  032%=      5-min Rain = 0
KTUR 082235Z 24017G22KT 22/05 A297 RMK A01 T02190045  RH  033%=      5-min Rain = 0
KTUR 082240Z 23017G23KT 22/05 A297 RMK A01 T02180046  RH  033%=      5-min Rain = 0
KTUR 082245Z 23022G28KT 22/05 A297 RMK A01 T02180045  RH  033%=      5-min Rain = 0
KTUR 082250Z 23017KT 22/05 A297 RMK A01 T02160045  RH  033%=      5-min Rain = 0
KTUR 082255Z 23018G25KT 22/05 A297 RMK A01 T02150046  RH  034%=      5-min Rain = 0
KTUR 082300Z 23019G24KT 22/05 A297 RMK A01 T02150046  RH  034%=      5-min Rain = 0
KTUR 082305Z 23019G26KT 21/05 A2971 RMK A01 T02130047  RH  034%=      5-min Rain = 0
KTUR 082310Z 23018KT 21/05 A297 RMK A01 T02120047  RH  034%=      5-min Rain = 0
KTUR 082315Z 22019G25KT 21/05 A2971 RMK A01 T02110047  RH  035%=      5-min Rain = 0
KTUR 082320Z 22018G24KT 21/05 A2971 RMK A01 T02090048  RH  035%=      5-min Rain = 0
KTUR 082325Z 22019G25KT 21/05 A2971 RMK A01 T02090048  RH  035%=      5-min Rain = 0
KTUR 082330Z 23018G27KT 21/05 A2971 RMK A01 T02080048  RH  036%=      5-min Rain = 0
KTUR 082335Z 22020G28KT 21/05 A297 RMK A01 T02090047  RH  035%=      5-min Rain = 0
KTUR 082340Z 22018KT 21/05 A297 RMK A01 T02060048  RH  036%=      5-min Rain = 0
KTUR 082345Z 22017G23KT 20/05 A2971 RMK A01 T02040048  RH  036%=      5-min Rain = 0
KTUR 082350Z 22018G23KT 20/05 A297 RMK A01 T02030049  RH  037%=      5-min Rain = 0
KTUR 082355Z 22017KT 20/05 A297 RMK A01 T02020049  RH  037%=      5-min Rain = 0
KTUR 090000Z 22017G23KT 20/05 A2971 RMK A01 T02000050  RH  038%=      5-min Rain = 0
KTUR 090005Z 22016KT 20/05 A2971 RMK A01 T02000051  RH  038%=      5-min Rain = 0
KTUR 090010Z 22015KT 20/05 A2971 RMK A01 T01980051  RH  039%=      5-min Rain = 0
KTUR 090015Z 22016G21KT 20/05 A2971 RMK A01 T01970052  RH  039%=      5-min Rain = 0
KTUR 090020Z 22018G26KT 20/05 A2971 RMK A01 T01970052  RH  039%=      5-min Rain = 0
KTUR 090025Z 21019G24KT 20/05 A2971 RMK A01 T01980051  RH  038%=      5-min Rain = 0
KTUR 090030Z 22020G26KT 20/05 A2971 RMK A01 T01980049  RH  038%=      5-min Rain = 0
KTUR 090035Z 22022G30KT 20/05 A2971 RMK A01 T01990047  RH  037%=      5-min Rain = 0
KTUR 090040Z 22026G32KT 20/05 A297 RMK A01 T02010045  RH  036%=      5-min Rain = 0
KTUR 090045Z 22025G32KT 20/05 A2971 RMK A01 T02000045  RH  036%=      5-min Rain = 0
KTUR 090050Z 22024G32KT 20/04 A2971 RMK A01 T01980043  RH  036%=      5-min Rain = 0
KTUR 090055Z 23024G29KT 20/04 A2972 RMK A01 T01980043  RH  036%=      5-min Rain = 0
KTUR 090100Z 23022G27KT 20/04 A2972 RMK A01 T01970043  RH  037%=      5-min Rain = 0
KTUR 090105Z 23021G28KT 20/04 A2972 RMK A01 T01960043  RH  037%=      5-min Rain = 0
KTUR 090110Z 23020G27KT 19/04 A2972 RMK A01 T01940043  RH  037%=      5-min Rain = 0
KTUR 090115Z 23018G24KT 19/04 A2973 RMK A01 T01920043  RH  038%=      5-min Rain = 0
KTUR 090120Z 23016G23KT 19/04 A2973 RMK A01 T01890044  RH  039%=      5-min Rain = 0
KTUR 090125Z 23016G21KT 19/04 A2973 RMK A01 T01890044  RH  039%=      5-min Rain = 0
KTUR 090130Z 22016G21KT 19/04 A2973 RMK A01 T01880044  RH  039%=      5-min Rain = 0
KTUR 090135Z 22016G22KT 19/05 A2973 RMK A01 T01870045  RH  040%=      5-min Rain = 0
KTUR 090140Z 22015KT 19/05 A2973 RMK A01 T01850046  RH  040%=      5-min Rain = 0
KTUR 090145Z 23013KT 18/05 A2973 RMK A01 T01820046  RH  041%=      5-min Rain = 0
KTUR 090150Z 22012KT 18/05 A2973 RMK A01 T01780047  RH  042%=      5-min Rain = 0
KTUR 090155Z 22014G23KT 18/05 A2973 RMK A01 T01770048  RH  043%=      5-min Rain = 0
KTUR 090200Z 22015G20KT 18/05 A2973 RMK A01 T01800049  RH  043%=      5-min Rain = 0
KTUR 090205Z 22017G24KT 18/05 A2972 RMK A01 T01780049  RH  043%=      5-min Rain = 0
KTUR 090210Z 22017KT 18/05 A2972 RMK A01 T01790049  RH  043%=      5-min Rain = 0
KTUR 090215Z 22019G24KT 18/05 A2972 RMK A01 T01780050  RH  043%=      5-min Rain = 0
KTUR 090220Z 23021G27KT 18/05 A2972 RMK A01 T01790050  RH  043%=      5-min Rain = 0
KTUR 090225Z 23019G24KT 18/05 A2972 RMK A01 T01780050  RH  043%=      5-min Rain = 0
KTUR 090230Z 22020G26KT 18/05 A2972 RMK A01 T01770050  RH  044%=      5-min Rain = 0
KTUR 090235Z 22020G26KT 18/05 A2972 RMK A01 T01760050  RH  044%=      5-min Rain = 0
KTUR 090240Z 23020G27KT 18/05 A2971 RMK A01 T01750049  RH  044%=      5-min Rain = 0
KTUR 090245Z 23020G27KT 17/05 A2971 RMK A01 T01740048  RH  044%=      5-min Rain = 0
KTUR 090250Z 23022G27KT 17/05 A2971 RMK A01 T01740048  RH  044%=      5-min Rain = 0
KTUR 090255Z 23020G27KT 17/05 A2972 RMK A01 T01720047  RH  044%=      5-min Rain = 0
KTUR 090300Z 22019G24KT 17/05 A2971 RMK A01 T01710047  RH  045%=      5-min Rain = 0
KTUR 090305Z 23021G27KT 17/05 A2971 RMK A01 T01700045  RH  044%=      5-min Rain = 0
KTUR 090310Z 23023G28KT 17/04 A2971 RMK A01 T01710043  RH  043%=      5-min Rain = 0
KTUR 090315Z 22022G28KT 17/04 A2972 RMK A01 T01700041  RH  043%=      5-min Rain = 0
KTUR 090320Z 23023G33KT 17/04 A2972 RMK A01 T01690038  RH  042%=      5-min Rain = 0
KTUR 090325Z 23023G29KT 17/04 A2971 RMK A01 T01680036  RH  042%=      5-min Rain = 0
KTUR 090330Z 23025G31KT 17/03 A2971 RMK A01 T01680034  RH  041%=      5-min Rain = 0
KTUR 090335Z 23025G32KT 17/03 A2971 RMK A01 T01670032  RH  041%=      5-min Rain = 0
KTUR 090340Z 23026G33KT 17/03 A2971 RMK A01 T01670030  RH  040%=      5-min Rain = 0
KTUR 090345Z 23027G34KT 17/03 A2971 RMK A01 T01670028  RH  040%=      5-min Rain = 0
KTUR 090350Z 23025G31KT 17/03 A2971 RMK A01 T01680027  RH  040%=      5-min Rain = 0
KTUR 090355Z 24022G29KT 17/03 A2971 RMK A01 T01660028  RH  040%=      5-min Rain = 0
KTUR 090400Z 24024G29KT 17/03 A2971 RMK A01 T01660028  RH  040%=      5-min Rain = 0
KTUR 090405Z 23022G27KT 17/03 A2971 RMK A01 T01660028  RH  040%=      5-min Rain = 0
KTUR 090410Z 23022G28KT 16/03 A2971 RMK A01 T01640029  RH  041%=      5-min Rain = 0
KTUR 090415Z 24023G30KT 16/03 A2971 RMK A01 T01640029  RH  041%=      5-min Rain = 0
KTUR 090420Z 23022G29KT 16/03 A2971 RMK A01 T01620029  RH  041%=      5-min Rain = 0
KTUR 090425Z 23022G27KT 16/03 A2971 RMK A01 T01610030  RH  042%=      5-min Rain = 0
KTUR 090430Z 23021G26KT 16/03 A2971 RMK A01 T01610030  RH  042%=      5-min Rain = 0
KTUR 090435Z 23022G27KT 16/03 A2971 RMK A01 T01610030  RH  042%=      5-min Rain = 0
KTUR 090440Z 24022G28KT 16/03 A2972 RMK A01 T01590031  RH  043%=      5-min Rain = 0
KTUR 090445Z 24020G25KT 16/03 A2972 RMK A01 T01580031  RH  043%=      5-min Rain = 0
KTUR 090450Z 24021KT 16/03 A2971 RMK A01 T01570032  RH  044%=      5-min Rain = 0
KTUR 090455Z 24021KT 16/03 A2971 RMK A01 T01580033  RH  044%=      5-min Rain = 0
KTUR 090500Z 24022G28KT 16/03 A2972 RMK A01 T01570034  RH  044%=      5-min Rain = 0
KTUR 090505Z 24021G29KT 16/04 A2972 RMK A01 T01570035  RH  045%=      5-min Rain = 0
KTUR 090510Z 24019G25KT 16/04 A2972 RMK A01 T01560036  RH  045%=      5-min Rain = 0
KTUR 090515Z 24017G23KT 15/04 A2972 RMK A01 T01540037  RH  046%=      5-min Rain = 0
KTUR 090520Z 24021G29KT 15/04 A2972 RMK A01 T01540038  RH  046%=      5-min Rain = 0
KTUR 090525Z 24022G27KT 15/04 A2972 RMK A01 T01540038  RH  046%=      5-min Rain = 0
KTUR 090530Z 23021G26KT 15/04 A2972 RMK A01 T01540039  RH  047%=      5-min Rain = 0
KTUR 090535Z 24020G25KT 15/04 A2972 RMK A01 T01530039  RH  047%=      5-min Rain = 0
KTUR 090540Z 23020G25KT 15/04 A2972 RMK A01 T01500039  RH  048%=      5-min Rain = 0
KTUR 090545Z 23021G26KT 15/04 A2972 RMK A01 T01500040  RH  048%=      5-min Rain = 0
KTUR 090550Z 23020G27KT 15/04 A2972 RMK A01 T01480040  RH  049%=      5-min Rain = 0
KTUR 090555Z 23019G24KT 15/04 A2972 RMK A01 T01460040  RH  050%=      5-min Rain = 0

Page generated in 0.0178 seconds.